Time;durP1;ratioP1;P1;durP2;ratioP2;P2;SDS_P1;SDS_P2;PMS_P1;PMS_P2;Temp;Humidity;BMP_temperature;BMP_pressure;BME280_temperature;BME280_humidity;BME280_pressure;Samples;Min_cycle;Max_cycle;Signal;HPM_P1;HPM_P2
2023/06/24 00:02:17;;;;;;;0.65;0.65;;;17.20;99.90;;;;;;5062998;28;20044;-71
2023/06/24 00:04:43;;;;;;;0.65;0.65;;;17.10;99.90;;;;;;5063450;28;20053;-71
2023/06/24 00:07:09;;;;;;;0.30;0.30;;;17.10;99.90;;;;;;5058549;28;20054;-71
2023/06/24 00:09:34;;;;;;;0.50;0.50;;;17.00;99.90;;;;;;5065134;28;20115;-72
2023/06/24 00:12:02;;;;;;;0.40;0.40;;;17.00;99.90;;;;;;5063931;28;20098;-71
2023/06/24 00:14:28;;;;;;;0.30;0.30;;;17.00;99.90;;;;;;5062082;28;20045;-72
2023/06/24 00:16:54;;;;;;;0.22;0.22;;;16.90;99.90;;;;;;5064288;28;20045;-72
2023/06/24 00:19:21;;;;;;;0.30;0.30;;;16.80;99.90;;;;;;5068938;28;20044;-72
2023/06/24 00:21:53;;;;;;;0.40;0.40;;;16.70;99.90;;;;;;5068834;28;20063;-71
2023/06/24 00:24:20;;;;;;;0.40;0.40;;;16.80;99.90;;;;;;5057293;28;20385;-72
2023/06/24 00:26:49;;;;;;;0.52;0.52;;;16.70;99.90;;;;;;5059939;28;20060;-72
2023/06/24 00:29:15;;;;;;;0.40;0.40;;;16.60;99.90;;;;;;5065389;28;20481;-72
2023/06/24 00:31:41;;;;;;;1.17;0.50;;;16.50;99.90;;;;;;5063149;28;20548;-71
2023/06/24 00:34:07;;;;;;;0.70;0.70;;;16.50;99.90;;;;;;5070871;28;21240;-72
2023/06/24 00:36:35;;;;;;;0.50;0.50;;;16.50;99.90;;;;;;5065232;28;20047;-72
2023/06/24 00:39:01;;;;;;;0.45;0.45;;;16.30;99.90;;;;;;5063950;28;20044;-72
2023/06/24 00:41:27;;;;;;;0.25;0.25;;;16.40;99.90;;;;;;5066707;28;20048;-71
2023/06/24 00:43:53;;;;;;;0.20;0.20;;;16.30;99.90;;;;;;5066271;28;20060;-71
2023/06/24 00:46:20;;;;;;;0.30;0.30;;;16.30;99.90;;;;;;5066277;28;20044;-72
2023/06/24 00:48:45;;;;;;;0.60;0.60;;;16.10;99.90;;;;;;5066192;28;20557;-72
2023/06/24 00:51:12;;;;;;;0.50;0.50;;;16.20;99.90;;;;;;5061997;28;20063;-72
2023/06/24 00:53:38;;;;;;;0.40;0.40;;;16.10;99.90;;;;;;5059360;28;20119;-72
2023/06/24 00:56:04;;;;;;;0.50;0.50;;;16.00;99.90;;;;;;5062042;28;20056;-72
2023/06/24 00:58:32;;;;;;;0.80;0.80;;;16.00;99.90;;;;;;5057299;28;20044;-72
2023/06/24 01:00:58;;;;;;;0.30;0.30;;;16.00;99.90;;;;;;5059021;28;20041;-72
2023/06/24 01:03:25;;;;;;;0.30;0.30;;;16.00;99.90;;;;;;5065349;28;20124;-72
2023/06/24 01:05:52;;;;;;;0.40;0.40;;;16.00;99.90;;;;;;5058614;28;20563;-72
2023/06/24 01:08:19;;;;;;;0.30;0.30;;;15.90;99.90;;;;;;5056582;28;20048;-72
2023/06/24 01:10:45;;;;;;;0.30;0.30;;;15.90;99.90;;;;;;5062252;28;20060;-72
2023/06/24 01:13:11;;;;;;;0.63;0.63;;;15.80;99.90;;;;;;5061066;28;20044;-72
2023/06/24 01:15:37;;;;;;;0.90;0.85;;;15.80;99.90;;;;;;5063562;28;20152;-72
2023/06/24 01:18:35;;;;;;;0.40;0.40;;;15.80;99.90;;;;;;5060431;28;20068;-72
2023/06/24 01:21:11;;;;;;;0.40;0.40;;;15.70;99.90;;;;;;5060366;28;20053;-72
2023/06/24 01:23:46;;;;;;;0.40;0.40;;;15.70;99.90;;;;;;5063513;28;20063;-72
2023/06/24 01:26:33;;;;;;;0.30;0.30;;;15.60;99.90;;;;;;5060011;28;20044;-72
2023/06/24 01:29:33;;;;;;;0.40;0.40;;;15.70;99.90;;;;;;5061890;28;20071;-71
2023/06/24 01:32:29;;;;;;;0.35;0.35;;;15.60;99.90;;;;;;5062872;28;20319;-72
2023/06/24 01:34:57;;;;;;;0.50;0.50;;;15.70;99.90;;;;;;5048028;28;20079;-73
2023/06/24 01:37:36;;;;;;;0.30;0.30;;;15.60;99.90;;;;;;5061130;28;20071;-72
2023/06/24 01:40:14;;;;;;;0.77;0.77;;;15.50;99.90;;;;;;5057435;28;20080;-72
2023/06/24 01:42:42;;;;;;;0.30;0.30;;;15.50;99.90;;;;;;5061801;28;20102;-72
2023/06/24 01:45:13;;;;;;;0.75;0.75;;;15.50;99.90;;;;;;5052820;28;20490;-72
2023/06/24 01:47:42;;;;;;;0.75;0.75;;;15.50;99.90;;;;;;5062131;28;20051;-72
2023/06/24 01:50:11;;;;;;;0.43;0.43;;;15.40;99.90;;;;;;5047038;28;20068;-72
2023/06/24 01:52:39;;;;;;;0.40;0.40;;;15.30;99.90;;;;;;5060492;28;20082;-72
2023/06/24 01:55:08;;;;;;;0.60;0.60;;;15.30;99.90;;;;;;5045998;28;20053;-72
2023/06/24 01:57:36;;;;;;;0.38;0.38;;;15.40;99.90;;;;;;5062435;28;20045;-72
2023/06/24 02:00:06;;;;;;;0.40;0.40;;;15.30;99.90;;;;;;5060751;28;20055;-72
2023/06/24 02:02:32;;;;;;;0.60;0.40;;;15.20;99.90;;;;;;5058880;28;20047;-72
2023/06/24 02:04:59;;;;;;;0.60;0.60;;;15.20;99.90;;;;;;5062117;28;20048;-72
2023/06/24 02:07:27;;;;;;;0.57;0.57;;;15.20;99.90;;;;;;5061714;28;20536;-73
2023/06/24 02:09:54;;;;;;;0.40;0.40;;;15.10;99.90;;;;;;5059858;28;20040;-73
2023/06/24 02:12:20;;;;;;;0.30;0.30;;;15.30;99.90;;;;;;5065110;28;20115;-72
2023/06/24 02:14:48;;;;;;;0.50;0.50;;;15.20;99.90;;;;;;5062985;28;20051;-72
2023/06/24 02:17:14;;;;;;;0.30;0.30;;;15.10;99.90;;;;;;5059751;28;20048;-72
2023/06/24 02:19:41;;;;;;;0.77;0.77;;;15.20;99.90;;;;;;5062406;28;20048;-72
2023/06/24 02:22:09;;;;;;;0.40;0.40;;;15.10;99.90;;;;;;5061352;28;20102;-72
2023/06/24 02:24:41;;;;;;;0.38;0.38;;;15.10;99.90;;;;;;5062537;28;20045;-73
2023/06/24 02:27:08;;;;;;;0.30;0.30;;;15.00;99.90;;;;;;5064153;28;20048;-72
2023/06/24 02:29:34;;;;;;;1.60;0.53;;;15.00;99.90;;;;;;5063451;28;20049;-72
2023/06/24 02:32:00;;;;;;;0.75;0.40;;;15.00;99.90;;;;;;5061716;28;20049;-73
2023/06/24 02:34:26;;;;;;;0.30;0.30;;;14.90;99.90;;;;;;5062548;28;20064;-72
2023/06/24 02:36:52;;;;;;;0.93;0.85;;;14.90;99.90;;;;;;5056150;28;20041;-72
2023/06/24 02:39:18;;;;;;;0.30;0.30;;;14.90;99.90;;;;;;5065384;28;20040;-72
2023/06/24 02:41:47;;;;;;;0.30;0.30;;;14.90;99.90;;;;;;5060628;28;20048;-72
2023/06/24 02:44:13;;;;;;;0.35;0.35;;;14.90;99.90;;;;;;5062403;28;20449;-71
2023/06/24 02:46:40;;;;;;;0.30;0.30;;;14.90;99.90;;;;;;5062088;28;20048;-71
2023/06/24 02:49:07;;;;;;;0.30;0.30;;;14.80;99.90;;;;;;5077988;28;20048;-71
2023/06/24 02:51:34;;;;;;;0.65;0.65;;;14.90;99.90;;;;;;5063310;28;20122;-71
2023/06/24 02:54:00;;;;;;;0.30;0.30;;;14.80;99.90;;;;;;5063858;28;20047;-71
2023/06/24 02:56:27;;;;;;;2.58;0.70;;;14.80;99.90;;;;;;5060701;28;20048;-71
2023/06/24 02:58:54;;;;;;;0.30;0.30;;;14.80;99.90;;;;;;5067021;28;20059;-71
2023/06/24 03:01:24;;;;;;;0.30;0.30;;;14.60;99.90;;;;;;5064300;28;20056;-71
2023/06/24 03:03:54;;;;;;;0.50;0.50;;;14.60;99.90;;;;;;5064314;28;20049;-71
2023/06/24 03:06:21;;;;;;;0.50;0.50;;;14.70;99.90;;;;;;5046749;28;20055;-71
2023/06/24 03:08:49;;;;;;;2.20;1.05;;;14.60;99.90;;;;;;5059478;28;20096;-71
2023/06/24 03:11:15;;;;;;;0.30;0.30;;;14.60;99.90;;;;;;5065212;28;20572;-71
2023/06/24 03:13:41;;;;;;;0.57;0.57;;;14.50;99.90;;;;;;5063292;28;20047;-71
2023/06/24 03:16:12;;;;;;;0.75;0.55;;;14.50;99.90;;;;;;5059459;28;20044;-71
2023/06/24 03:18:41;;;;;;;0.40;0.40;;;14.50;99.90;;;;;;5063069;28;20044;-71
2023/06/24 03:21:08;;;;;;;0.40;0.40;;;14.40;99.90;;;;;;5067879;28;20171;-71
2023/06/24 03:23:33;;;;;;;0.60;0.60;;;14.40;99.90;;;;;;5066037;28;20102;-70
2023/06/24 03:25:59;;;;;;;0.70;0.70;;;14.40;99.90;;;;;;5065928;28;20040;-71
2023/06/24 03:28:25;;;;;;;0.40;0.40;;;14.40;99.90;;;;;;5066229;28;20052;-70
2023/06/24 03:30:50;;;;;;;0.30;0.30;;;14.50;99.90;;;;;;5062170;28;20117;-70
2023/06/24 03:33:16;;;;;;;0.55;0.55;;;14.50;99.90;;;;;;5068293;28;20038;-71
2023/06/24 03:35:45;;;;;;;0.30;0.30;;;14.50;99.90;;;;;;5066028;28;20386;-71
2023/06/24 03:38:11;;;;;;;0.50;0.50;;;14.40;99.90;;;;;;5064806;28;20059;-71
2023/06/24 03:40:37;;;;;;;0.30;0.30;;;14.60;99.90;;;;;;5065552;28;20079;-70
2023/06/24 03:43:03;;;;;;;0.43;0.43;;;14.30;99.90;;;;;;5063291;28;20068;-70
2023/06/24 03:45:29;;;;;;;0.50;0.50;;;14.50;99.90;;;;;;5063935;28;20055;-70
2023/06/24 03:47:54;;;;;;;1.58;0.68;;;14.50;99.90;;;;;;5063554;28;20039;-70
2023/06/24 03:50:21;;;;;;;0.50;0.50;;;14.40;99.90;;;;;;5061521;28;20072;-71
2023/06/24 03:52:48;;;;;;;0.40;0.40;;;14.30;99.90;;;;;;5061035;28;20383;-70
2023/06/24 03:55:13;;;;;;;0.55;0.55;;;14.50;99.90;;;;;;5065468;28;20123;-70
2023/06/24 03:57:39;;;;;;;0.30;0.30;;;14.30;99.90;;;;;;5063097;28;20522;-70
2023/06/24 04:00:19;;;;;;;0.38;0.38;;;14.20;99.90;;;;;;5063330;28;20044;-70
2023/06/24 04:02:45;;;;;;;0.40;0.40;;;14.30;99.90;;;;;;5059838;28;20536;-70
2023/06/24 04:05:11;;;;;;;0.40;0.40;;;14.40;99.90;;;;;;5063539;28;20044;-70
2023/06/24 04:07:36;;;;;;;0.45;0.35;;;14.30;99.90;;;;;;5062321;28;20049;-70
2023/06/24 04:10:10;;;;;;;0.40;0.40;;;14.30;99.90;;;;;;5063111;28;20067;-71
2023/06/24 04:12:36;;;;;;;0.43;0.43;;;14.50;99.90;;;;;;5061319;28;20119;-71
2023/06/24 04:15:05;;;;;;;1.00;0.90;;;14.40;99.90;;;;;;5062083;28;20781;-70
2023/06/24 04:17:31;;;;;;;0.30;0.30;;;14.60;99.90;;;;;;5059429;28;20040;-71
2023/06/24 04:19:58;;;;;;;1.65;1.02;;;14.50;99.90;;;;;;5061735;28;20040;-70
2023/06/24 04:22:24;;;;;;;0.88;0.88;;;14.60;99.90;;;;;;5068208;28;20048;-70
2023/06/24 04:24:51;;;;;;;0.35;0.35;;;14.60;99.90;;;;;;5061430;28;20127;-70
2023/06/24 04:27:16;;;;;;;0.38;0.38;;;14.70;99.90;;;;;;5063433;28;20545;-71
2023/06/24 04:29:42;;;;;;;0.40;0.40;;;14.90;99.90;;;;;;5059473;28;20049;-71
2023/06/24 04:32:08;;;;;;;0.40;0.40;;;14.90;99.90;;;;;;5061562;28;20452;-70
2023/06/24 04:34:34;;;;;;;0.73;0.73;;;15.10;99.90;;;;;;5063381;28;20068;-70
2023/06/24 04:36:59;;;;;;;4.28;0.65;;;15.10;99.90;;;;;;5065358;28;20067;-71
2023/06/24 04:39:25;;;;;;;0.40;0.40;;;15.10;99.90;;;;;;5065841;28;20724;-70
2023/06/24 04:41:51;;;;;;;0.32;0.32;;;15.20;99.90;;;;;;5064549;28;20048;-70
2023/06/24 04:44:16;;;;;;;0.30;0.30;;;15.10;99.90;;;;;;5065249;28;20047;-71
2023/06/24 04:46:42;;;;;;;0.60;0.60;;;15.30;99.90;;;;;;5066817;28;20455;-70
2023/06/24 04:49:08;;;;;;;0.50;0.50;;;15.30;99.90;;;;;;5065406;28;20044;-70
2023/06/24 04:51:34;;;;;;;0.40;0.40;;;15.20;99.90;;;;;;5058967;28;20093;-70
2023/06/24 04:54:00;;;;;;;0.40;0.40;;;15.40;99.90;;;;;;5064126;28;20048;-70
2023/06/24 04:56:26;;;;;;;0.32;0.32;;;15.50;99.90;;;;;;5064694;28;20044;-70
2023/06/24 04:58:51;;;;;;;0.40;0.40;;;15.40;99.90;;;;;;5063789;28;20048;-70
2023/06/24 05:01:17;;;;;;;0.52;0.52;;;15.50;99.90;;;;;;5063437;28;20044;-70
2023/06/24 05:03:43;;;;;;;2.72;0.68;;;15.50;99.90;;;;;;5058831;28;20627;-71
2023/06/24 05:06:08;;;;;;;0.30;0.30;;;15.60;99.90;;;;;;5063455;28;20110;-70
2023/06/24 05:08:34;;;;;;;0.40;0.40;;;15.80;99.90;;;;;;5054507;28;20557;-71
2023/06/24 05:11:00;;;;;;;0.30;0.30;;;15.80;99.90;;;;;;5064589;28;20129;-70
2023/06/24 05:13:27;;;;;;;0.30;0.30;;;15.80;99.90;;;;;;5067794;28;20151;-70
2023/06/24 05:15:53;;;;;;;0.30;0.30;;;15.70;99.90;;;;;;5061227;28;20052;-70
2023/06/24 05:18:19;;;;;;;0.40;0.40;;;16.00;99.90;;;;;;5060335;28;20043;-70
2023/06/24 05:20:44;;;;;;;0.40;0.40;;;16.20;99.90;;;;;;5051861;28;20409;-71
2023/06/24 05:23:12;;;;;;;0.43;0.43;;;16.30;99.90;;;;;;5059520;28;20765;-70
2023/06/24 05:25:38;;;;;;;0.32;0.32;;;16.30;99.90;;;;;;5062374;28;20076;-71
2023/06/24 05:28:03;;;;;;;0.40;0.38;;;16.20;99.90;;;;;;5064713;28;20519;-71
2023/06/24 05:30:29;;;;;;;0.40;0.40;;;16.60;99.90;;;;;;5061004;28;20076;-70
2023/06/24 05:32:54;;;;;;;0.90;0.47;;;16.60;99.90;;;;;;5064102;28;20106;-71
2023/06/24 05:35:20;;;;;;;0.47;0.47;;;16.70;99.90;;;;;;5058619;28;20056;-71
2023/06/24 05:37:46;;;;;;;0.20;0.20;;;16.70;99.90;;;;;;5068283;28;20037;-70
2023/06/24 05:40:12;;;;;;;0.57;0.57;;;16.60;99.90;;;;;;5063328;28;20485;-72
2023/06/24 05:42:38;;;;;;;0.43;0.35;;;16.60;99.90;;;;;;5075696;28;20051;-71
2023/06/24 05:45:06;;;;;;;0.20;0.20;;;16.90;99.90;;;;;;5063991;28;20045;-71
2023/06/24 05:47:31;;;;;;;0.20;0.20;;;16.90;99.90;;;;;;5068142;28;20040;-72
2023/06/24 05:49:58;;;;;;;0.75;0.75;;;17.00;99.90;;;;;;5066394;28;20097;-71
2023/06/24 05:52:23;;;;;;;0.32;0.32;;;17.30;99.90;;;;;;5055527;28;20049;-70
2023/06/24 05:54:49;;;;;;;0.93;0.93;;;17.30;99.90;;;;;;5066747;28;20814;-70
2023/06/24 05:57:15;;;;;;;0.93;0.50;;;17.70;99.90;;;;;;5067996;28;20075;-70
2023/06/24 05:59:40;;;;;;;0.82;0.82;;;17.70;99.90;;;;;;5083869;28;20054;-70
2023/06/24 06:02:06;;;;;;;0.40;0.40;;;17.90;99.90;;;;;;5064529;28;20052;-71
2023/06/24 06:04:32;;;;;;;1.33;0.90;;;18.10;99.90;;;;;;5071247;28;20454;-71
2023/06/24 06:06:58;;;;;;;0.60;0.60;;;18.30;99.90;;;;;;5059415;28;20569;-70
2023/06/24 06:09:23;;;;;;;1.30;1.20;;;18.30;99.90;;;;;;5062038;28;20114;-70
2023/06/24 06:11:49;;;;;;;1.38;1.23;;;18.50;99.90;;;;;;5075063;28;20055;-70
2023/06/24 06:14:14;;;;;;;1.20;0.88;;;18.60;99.90;;;;;;5065096;28;20522;-71
2023/06/24 06:16:40;;;;;;;1.10;1.10;;;18.90;99.90;;;;;;5065964;28;20052;-71
2023/06/24 06:19:06;;;;;;;1.02;1.02;;;19.10;99.90;;;;;;5059545;28;20736;-71
2023/06/24 06:21:32;;;;;;;2.08;0.88;;;19.20;99.90;;;;;;5059488;28;20084;-71
2023/06/24 06:23:58;;;;;;;0.40;0.40;;;19.30;99.90;;;;;;5062011;28;20472;-71
2023/06/24 06:26:23;;;;;;;1.02;0.70;;;19.40;99.90;;;;;;5061514;28;20040;-71
2023/06/24 06:28:49;;;;;;;0.80;0.80;;;19.60;99.90;;;;;;5076201;28;20044;-71
2023/06/24 06:31:15;;;;;;;1.55;0.85;;;19.80;99.90;;;;;;5068106;28;20132;-71
2023/06/24 06:33:41;;;;;;;0.32;0.32;;;20.10;99.90;;;;;;5068622;28;20139;-71
2023/06/24 06:36:07;;;;;;;0.75;0.75;;;20.10;99.90;;;;;;5063571;28;20491;-70
2023/06/24 06:38:33;;;;;;;1.73;1.23;;;20.40;99.90;;;;;;5066468;28;20037;-70
2023/06/24 06:40:59;;;;;;;0.65;0.65;;;20.50;99.90;;;;;;5061698;28;20052;-69
2023/06/24 06:43:25;;;;;;;0.80;0.80;;;21.00;99.90;;;;;;5055871;28;20039;-69
2023/06/24 06:45:50;;;;;;;0.68;0.68;;;21.20;99.90;;;;;;5064809;28;20544;-69
2023/06/24 06:48:16;;;;;;;0.50;0.50;;;21.50;99.90;;;;;;5066647;28;20044;-69
2023/06/24 06:50:42;;;;;;;0.32;0.32;;;21.60;99.90;;;;;;5072798;28;20041;-69
2023/06/24 06:53:07;;;;;;;0.40;0.40;;;21.90;99.90;;;;;;5067092;28;20068;-69
2023/06/24 06:55:33;;;;;;;0.85;0.85;;;22.20;99.90;;;;;;5076199;28;20055;-70
2023/06/24 06:57:59;;;;;;;1.15;1.05;;;22.40;99.90;;;;;;5080957;28;20066;-69
2023/06/24 07:00:24;;;;;;;0.73;0.73;;;22.70;99.90;;;;;;5066143;28;20044;-70
2023/06/24 07:02:50;;;;;;;2.97;1.05;;;23.00;99.90;;;;;;5070743;28;20642;-71
2023/06/24 07:05:16;;;;;;;0.65;0.65;;;23.20;99.90;;;;;;5062109;28;20086;-70
2023/06/24 07:07:44;;;;;;;1.15;0.77;;;23.50;99.90;;;;;;5042139;28;20057;-69
2023/06/24 07:10:10;;;;;;;0.98;0.95;;;23.60;99.90;;;;;;5069937;28;20041;-70
2023/06/24 07:12:35;;;;;;;1.45;1.35;;;23.90;99.90;;;;;;5061641;28;20118;-70
2023/06/24 07:15:01;;;;;;;0.45;0.45;;;24.10;99.90;;;;;;5063946;28;20039;-69
2023/06/24 07:17:27;;;;;;;0.95;0.90;;;24.30;99.90;;;;;;5063942;28;20082;-70
2023/06/24 07:19:52;;;;;;;0.93;0.93;;;24.60;99.90;;;;;;5064591;28;20040;-69
2023/06/24 07:22:18;;;;;;;1.42;0.95;;;24.80;99.90;;;;;;5067398;28;20029;-70
2023/06/24 07:24:43;;;;;;;0.80;0.73;;;24.90;99.90;;;;;;5063855;28;20052;-69
2023/06/24 07:27:09;;;;;;;1.70;1.60;;;25.20;99.90;;;;;;5059269;28;20093;-70
2023/06/24 07:29:35;;;;;;;1.30;1.08;;;25.20;99.90;;;;;;5063367;28;20123;-70
2023/06/24 07:32:01;;;;;;;0.50;0.50;;;25.40;99.90;;;;;;5058507;28;20045;-70
2023/06/24 07:34:29;;;;;;;0.75;0.75;;;25.60;99.90;;;;;;5062081;28;20089;-70
2023/06/24 07:36:54;;;;;;;0.57;0.57;;;25.70;99.90;;;;;;5065383;28;20045;-70
2023/06/24 07:39:20;;;;;;;0.65;0.65;;;25.80;99.90;;;;;;5065965;28;20081;-70
2023/06/24 07:41:46;;;;;;;1.38;1.33;;;26.10;99.90;;;;;;5070678;28;20083;-68
2023/06/24 07:44:12;;;;;;;0.43;0.43;;;26.20;99.90;;;;;;5068560;28;20120;-67
2023/06/24 07:46:37;;;;;;;0.85;0.85;;;26.20;99.90;;;;;;5069933;28;20112;-68
2023/06/24 07:49:03;;;;;;;0.90;0.90;;;26.50;99.90;;;;;;5064026;28;21807;-68
2023/06/24 07:51:29;;;;;;;0.55;0.55;;;26.70;99.90;;;;;;5062667;28;20059;-67
2023/06/24 07:53:55;;;;;;;0.93;0.93;;;27.00;99.90;;;;;;5065187;28;20401;-67
2023/06/24 07:56:21;;;;;;;1.17;1.07;;;27.30;99.90;;;;;;5062784;28;20510;-67
2023/06/24 07:58:47;;;;;;;0.98;0.98;;;27.50;99.90;;;;;;5062180;28;20306;-67
2023/06/24 08:01:13;;;;;;;1.08;1.08;;;27.80;99.90;;;;;;5066727;28;20127;-67
2023/06/24 08:03:38;;;;;;;0.63;0.63;;;27.70;99.90;;;;;;5061944;28;20053;-68
2023/06/24 08:06:04;;;;;;;0.73;0.73;;;27.90;99.90;;;;;;5057624;28;20539;-67
2023/06/24 08:08:30;;;;;;;1.10;0.90;;;27.90;99.90;;;;;;5061973;28;20052;-67
2023/06/24 08:10:56;;;;;;;0.43;0.43;;;27.70;99.90;;;;;;5066320;28;20060;-67
2023/06/24 08:13:21;;;;;;;1.23;1.23;;;27.90;99.90;;;;;;5059086;28;20040;-67
2023/06/24 08:15:47;;;;;;;0.70;0.70;;;27.90;99.90;;;;;;5062804;28;20045;-68
2023/06/24 08:18:13;;;;;;;0.98;0.93;;;28.00;99.90;;;;;;5060848;28;20095;-68
2023/06/24 08:20:38;;;;;;;0.70;0.70;;;28.10;99.90;;;;;;5066749;28;20090;-68
2023/06/24 08:23:04;;;;;;;0.30;0.30;;;28.20;99.90;;;;;;5063873;28;20048;-68
2023/06/24 08:25:30;;;;;;;1.95;0.75;;;28.50;99.90;;;;;;5061487;28;20135;-68
2023/06/24 08:27:56;;;;;;;0.40;0.35;;;28.50;99.90;;;;;;5060184;28;20047;-67
2023/06/24 08:30:22;;;;;;;0.70;0.70;;;28.70;99.90;;;;;;5062944;28;20048;-68
2023/06/24 08:32:47;;;;;;;0.50;0.50;;;28.90;99.90;;;;;;5060858;28;20044;-68
2023/06/24 08:35:13;;;;;;;1.20;1.10;;;29.20;99.90;;;;;;5059451;28;20045;-68
2023/06/24 08:37:39;;;;;;;1.13;1.08;;;29.40;99.90;;;;;;5063529;28;20051;-67
2023/06/24 08:40:05;;;;;;;1.40;1.30;;;29.50;99.90;;;;;;5061793;28;20048;-68
2023/06/24 08:42:31;;;;;;;2.90;1.48;;;29.40;99.90;;;;;;5061974;28;20133;-68
2023/06/24 08:44:57;;;;;;;0.50;0.50;;;29.30;99.90;;;;;;5062957;28;20785;-67
2023/06/24 08:47:24;;;;;;;1.15;1.15;;;29.40;99.90;;;;;;5057235;28;20037;-68
2023/06/24 08:49:55;;;;;;;2.55;1.13;;;29.30;99.90;;;;;;5062295;28;20041;-68
2023/06/24 08:52:27;;;;;;;1.23;1.23;;;29.40;99.90;;;;;;5060960;28;20052;-68
2023/06/24 08:54:56;;;;;;;1.10;1.05;;;29.30;99.90;;;;;;5063072;28;20774;-68
2023/06/24 08:57:23;;;;;;;1.05;1.00;;;29.40;99.90;;;;;;5064375;28;20052;-68
2023/06/24 08:59:48;;;;;;;1.50;1.40;;;29.40;99.90;;;;;;5064212;28;20548;-69
2023/06/24 09:02:14;;;;;;;0.52;0.52;;;29.50;99.90;;;;;;5060270;28;20044;-68
2023/06/24 09:04:41;;;;;;;0.68;0.68;;;29.50;99.90;;;;;;5059411;28;20044;-68
2023/06/24 09:07:06;;;;;;;0.60;0.60;;;29.40;99.90;;;;;;5061365;28;20052;-68
2023/06/24 09:09:32;;;;;;;0.60;0.60;;;29.50;99.90;;;;;;5063504;28;20118;-68
2023/06/24 09:12:02;;;;;;;0.75;0.75;;;29.40;99.90;;;;;;5062456;28;20561;-68
2023/06/24 09:14:29;;;;;;;0.90;0.85;;;29.50;99.90;;;;;;5063917;28;20052;-68
2023/06/24 09:16:58;;;;;;;0.40;0.40;;;29.60;99.90;;;;;;5058877;28;20513;-68
2023/06/24 09:19:29;;;;;;;1.33;0.85;;;29.60;99.90;;;;;;5061508;28;20037;-68
2023/06/24 09:22:05;;;;;;;0.30;0.30;;;29.70;99.90;;;;;;5042954;28;20069;-68
2023/06/24 09:24:36;;;;;;;0.82;0.55;;;29.90;99.10;;;;;;5065291;28;20401;-68
2023/06/24 09:27:04;;;;;;;1.08;1.08;;;29.80;98.20;;;;;;5063967;28;20131;-69
2023/06/24 09:29:34;;;;;;;0.70;0.70;;;29.70;98.70;;;;;;5062620;28;20048;-68
2023/06/24 09:32:04;;;;;;;0.98;0.98;;;29.70;99.10;;;;;;5063263;28;20105;-68
2023/06/24 09:34:30;;;;;;;0.82;0.82;;;29.80;99.00;;;;;;5061578;28;20051;-68
2023/06/24 09:36:58;;;;;;;0.63;0.63;;;29.80;99.10;;;;;;5062912;28;20036;-68
2023/06/24 09:39:28;;;;;;;0.70;0.70;;;29.90;98.80;;;;;;5061085;28;20056;-68
2023/06/24 09:41:55;;;;;;;0.88;0.88;;;30.20;99.00;;;;;;5064282;28;20755;-68
2023/06/24 09:44:21;;;;;;;0.47;0.47;;;30.60;97.70;;;;;;5057057;28;20052;-68
2023/06/24 09:46:47;;;;;;;1.77;1.67;;;30.80;97.50;;;;;;5063712;28;20490;-68
2023/06/24 09:49:13;;;;;;;0.93;0.93;;;31.00;96.70;;;;;;5061530;28;20041;-68
2023/06/24 09:51:45;;;;;;;0.52;0.52;;;31.00;97.20;;;;;;5061509;28;20640;-68
2023/06/24 09:54:12;;;;;;;2.20;1.40;;;31.10;96.90;;;;;;5060528;28;20498;-68
2023/06/24 09:56:44;;;;;;;0.55;0.55;;;31.40;96.70;;;;;;5059346;28;20056;-68
2023/06/24 09:59:12;;;;;;;0.80;0.80;;;31.60;96.10;;;;;;5059802;28;20545;-68
2023/06/24 10:01:43;;;;;;;0.55;0.55;;;31.70;95.50;;;;;;5062473;28;20055;-68
2023/06/24 10:04:13;;;;;;;0.50;0.50;;;31.80;95.70;;;;;;5063102;28;20044;-68
2023/06/24 10:06:38;;;;;;;0.50;0.50;;;31.80;95.40;;;;;;5063831;28;20041;-68
2023/06/24 10:09:05;;;;;;;0.73;0.73;;;31.80;95.30;;;;;;5063843;28;20040;-68
2023/06/24 10:11:31;;;;;;;0.80;0.80;;;32.10;95.60;;;;;;5060632;28;21307;-67
2023/06/24 10:13:56;;;;;;;0.45;0.45;;;32.00;94.10;;;;;;5062480;28;20051;-68
2023/06/24 10:16:22;;;;;;;0.82;0.82;;;32.10;94.70;;;;;;5064273;28;20052;-68
2023/06/24 10:18:48;;;;;;;0.60;0.60;;;32.30;93.80;;;;;;5064459;28;20044;-68
2023/06/24 10:21:16;;;;;;;0.47;0.47;;;32.70;93.70;;;;;;5063135;28;20053;-68
2023/06/24 10:23:47;;;;;;;0.50;0.50;;;32.90;93.90;;;;;;5062894;28;20126;-68
2023/06/24 10:26:40;;;;;;;0.40;0.40;;;33.30;93.50;;;;;;5061831;28;20043;-68
2023/06/24 10:29:06;;;;;;;0.85;0.85;;;33.10;92.20;;;;;;5059173;28;20041;-68
2023/06/24 10:31:40;;;;;;;0.80;0.80;;;33.40;93.20;;;;;;5065821;28;20770;-68
2023/06/24 10:34:31;;;;;;;1.08;1.08;;;33.50;92.10;;;;;;5057113;28;20060;-68
2023/06/24 10:37:00;;;;;;;0.50;0.50;;;33.60;92.10;;;;;;5062517;28;20050;-68
2023/06/24 10:39:52;;;;;;;0.57;0.47;;;33.50;92.30;;;;;;5062693;28;20179;-68
2023/06/24 10:42:36;;;;;;;1.58;0.77;;;33.20;91.60;;;;;;5062097;28;20505;-68
2023/06/24 10:45:14;;;;;;;0.50;0.50;;;33.00;91.70;;;;;;5060392;28;20122;-68
2023/06/24 10:47:42;;;;;;;0.82;0.82;;;32.80;91.50;;;;;;5059626;28;20493;-68
2023/06/24 10:50:10;;;;;;;0.50;0.50;;;32.80;91.60;;;;;;5063619;28;20052;-68
2023/06/24 10:52:41;;;;;;;0.50;0.50;;;32.90;91.90;;;;;;5065306;28;20155;-68
2023/06/24 10:55:07;;;;;;;0.40;0.40;;;32.90;90.90;;;;;;5060306;28;20133;-68
2023/06/24 10:57:34;;;;;;;0.55;0.55;;;33.00;90.30;;;;;;5059885;28;20055;-68
2023/06/24 11:00:01;;;;;;;0.80;0.80;;;33.30;91.30;;;;;;5040684;28;20048;-68
2023/06/24 11:02:28;;;;;;;0.70;0.70;;;33.10;88.90;;;;;;5063456;28;20466;-68
2023/06/24 11:04:57;;;;;;;0.57;0.57;;;33.30;90.60;;;;;;5060880;28;20054;-68
2023/06/24 11:07:24;;;;;;;0.77;0.77;;;33.30;90.20;;;;;;5057092;28;20417;-68
2023/06/24 11:09:51;;;;;;;0.50;0.50;;;33.70;90.50;;;;;;5059952;28;20068;-68
2023/06/24 11:12:18;;;;;;;0.40;0.40;;;33.70;90.20;;;;;;5066104;28;20383;-68
2023/06/24 11:14:44;;;;;;;0.80;0.80;;;33.70;88.60;;;;;;5066476;28;20101;-69
2023/06/24 11:17:10;;;;;;;0.53;0.53;;;33.70;89.90;;;;;;5068368;28;20044;-68
2023/06/24 11:19:39;;;;;;;0.90;0.90;;;33.80;86.30;;;;;;5056072;28;20094;-68
2023/06/24 11:22:06;;;;;;;1.25;1.15;;;33.80;88.50;;;;;;5066791;28;20053;-69
2023/06/24 11:24:32;;;;;;;0.63;0.63;;;34.00;89.00;;;;;;5061876;28;20041;-68
2023/06/24 11:26:58;;;;;;;0.47;0.47;;;33.90;88.50;;;;;;5064821;28;20058;-69
2023/06/24 11:29:24;;;;;;;0.60;0.60;;;33.70;85.50;;;;;;5066439;28;20420;-68
2023/06/24 11:31:50;;;;;;;1.60;0.87;;;33.50;89.10;;;;;;5064710;28;20040;-68
2023/06/24 11:34:18;;;;;;;0.57;0.57;;;33.80;88.60;;;;;;5070928;28;20048;-68
2023/06/24 11:36:44;;;;;;;0.47;0.47;;;33.90;88.30;;;;;;5071552;28;20064;-68
2023/06/24 11:39:20;;;;;;;0.65;0.65;;;34.10;84.60;;;;;;5055338;28;20079;-68
2023/06/24 11:41:46;;;;;;;1.00;1.00;;;34.20;87.40;;;;;;5070709;28;20076;-68
2023/06/24 11:44:12;;;;;;;0.68;0.68;;;34.60;88.80;;;;;;5070107;28;20221;-68
2023/06/24 11:46:37;;;;;;;0.90;0.90;;;35.00;87.00;;;;;;5061539;28;20057;-69
2023/06/24 11:49:04;;;;;;;0.93;0.93;;;35.10;84.30;;;;;;5062510;28;20375;-68
2023/06/24 11:51:30;;;;;;;1.17;1.08;;;35.20;85.60;;;;;;5067171;28;20529;-68
2023/06/24 11:54:00;;;;;;;0.50;0.50;;;35.20;83.60;;;;;;5063687;28;20045;-69
2023/06/24 11:56:36;;;;;;;0.50;0.50;;;35.40;81.80;;;;;;5066331;28;20456;-70
2023/06/24 11:59:05;;;;;;;0.68;0.68;;;35.30;83.60;;;;;;5067892;28;20039;-69
2023/06/24 12:01:36;;;;;;;0.50;0.50;;;35.40;84.30;;;;;;5066847;28;20041;-68
2023/06/24 12:04:13;;;;;;;0.73;0.73;;;35.40;84.30;;;;;;5068495;28;20048;-69
2023/06/24 12:06:42;;;;;;;0.68;0.68;;;35.40;84.90;;;;;;5066313;28;20136;-68
2023/06/24 12:09:09;;;;;;;0.68;0.68;;;35.30;83.40;;;;;;5063315;28;20427;-70
2023/06/24 12:11:35;;;;;;;0.50;0.50;;;35.10;83.30;;;;;;5060661;28;20581;-70
2023/06/24 12:14:01;;;;;;;0.63;0.63;;;35.00;83.60;;;;;;5066892;28;20041;-69
2023/06/24 12:16:27;;;;;;;0.80;0.80;;;35.20;84.80;;;;;;5069435;28;20044;-68
2023/06/24 12:18:53;;;;;;;0.50;0.50;;;35.20;85.00;;;;;;5063113;28;20037;-69
2023/06/24 12:21:19;;;;;;;0.50;0.50;;;35.30;83.20;;;;;;5063563;28;20052;-69
2023/06/24 12:23:45;;;;;;;0.50;0.50;;;35.70;85.00;;;;;;5060607;28;20040;-68
2023/06/24 12:26:11;;;;;;;0.80;0.80;;;35.30;82.50;;;;;;5062666;28;21718;-69
2023/06/24 12:28:37;;;;;;;0.80;0.80;;;35.40;84.50;;;;;;5065590;28;20037;-69
2023/06/24 12:31:03;;;;;;;0.50;0.50;;;35.60;84.70;;;;;;5064845;28;20110;-68
2023/06/24 12:33:29;;;;;;;0.67;0.67;;;35.70;83.70;;;;;;5064473;28;20071;-68
2023/06/24 12:35:55;;;;;;;0.82;0.82;;;35.60;83.30;;;;;;5067184;28;20041;-69
2023/06/24 12:38:21;;;;;;;0.57;0.57;;;35.70;83.40;;;;;;5066753;28;20055;-69
2023/06/24 12:40:47;;;;;;;0.57;0.57;;;35.60;82.10;;;;;;5066968;28;20063;-68
2023/06/24 12:43:13;;;;;;;;;;;35.60;83.40;;;;;;5068960;28;20091;-68
2023/06/24 12:45:43;;;;;;;0.88;0.88;;;35.80;82.80;;;;;;5067609;28;19928;-68
2023/06/24 12:48:09;;;;;;;0.55;0.55;;;35.80;82.90;;;;;;5066122;28;20043;-68
2023/06/24 12:50:35;;;;;;;0.90;0.90;;;35.60;83.00;;;;;;5066409;28;20075;-68